sensor_id;sensor_type;location;lat;lon;timestamp;temperature;humidity
50013;DHT22;35901;48.694;9.476;2023-04-03T00:00:44;1.90;99.90
50013;DHT22;35901;48.694;9.476;2023-04-03T00:03:10;1.80;99.90
50013;DHT22;35901;48.694;9.476;2023-04-03T00:05:36;1.80;99.90
50013;DHT22;35901;48.694;9.476;2023-04-03T00:08:04;1.80;99.90
50013;DHT22;35901;48.694;9.476;2023-04-03T00:10:34;1.80;99.90
50013;DHT22;35901;48.694;9.476;2023-04-03T00:13:00;1.80;99.90
50013;DHT22;35901;48.694;9.476;2023-04-03T00:15:30;1.80;99.90
50013;DHT22;35901;48.694;9.476;2023-04-03T00:17:56;1.80;99.90
50013;DHT22;35901;48.694;9.476;2023-04-03T00:20:22;1.70;99.90
50013;DHT22;35901;48.694;9.476;2023-04-03T00:32:13;1.70;99.90
50013;DHT22;35901;48.694;9.476;2023-04-03T00:34:39;1.70;99.90
50013;DHT22;35901;48.694;9.476;2023-04-03T00:37:05;1.60;99.90
50013;DHT22;35901;48.694;9.476;2023-04-03T00:39:32;1.60;99.90
50013;DHT22;35901;48.694;9.476;2023-04-03T00:41:59;1.60;99.90
50013;DHT22;35901;48.694;9.476;2023-04-03T00:47:02;1.50;99.90
50013;DHT22;35901;48.694;9.476;2023-04-03T00:49:29;1.50;99.90
50013;DHT22;35901;48.694;9.476;2023-04-03T00:51:56;1.40;99.90
50013;DHT22;35901;48.694;9.476;2023-04-03T00:54:23;1.60;99.90
50013;DHT22;35901;48.694;9.476;2023-04-03T00:56:51;1.60;99.90
50013;DHT22;35901;48.694;9.476;2023-04-03T00:59:26;1.50;99.90
50013;DHT22;35901;48.694;9.476;2023-04-03T01:01:55;1.60;99.90
50013;DHT22;35901;48.694;9.476;2023-04-03T01:04:30;1.60;99.90
50013;DHT22;35901;48.694;9.476;2023-04-03T01:07:00;1.70;99.90
50013;DHT22;35901;48.694;9.476;2023-04-03T01:09:28;1.70;99.90
50013;DHT22;35901;48.694;9.476;2023-04-03T01:11:55;1.70;99.90
50013;DHT22;35901;48.694;9.476;2023-04-03T01:14:37;1.70;99.90
50013;DHT22;35901;48.694;9.476;2023-04-03T01:17:20;1.80;99.90
50013;DHT22;35901;48.694;9.476;2023-04-03T01:19:52;1.80;99.90
50013;DHT22;35901;48.694;9.476;2023-04-03T01:22:30;1.80;99.90
50013;DHT22;35901;48.694;9.476;2023-04-03T01:25:01;1.80;99.90
50013;DHT22;35901;48.694;9.476;2023-04-03T01:27:27;1.80;99.90
50013;DHT22;35901;48.694;9.476;2023-04-03T01:29:53;1.80;99.90
50013;DHT22;35901;48.694;9.476;2023-04-03T01:32:19;1.80;99.90
50013;DHT22;35901;48.694;9.476;2023-04-03T01:34:45;1.90;99.90
50013;DHT22;35901;48.694;9.476;2023-04-03T01:37:11;1.80;99.90
50013;DHT22;35901;48.694;9.476;2023-04-03T01:39:37;1.90;99.90
50013;DHT22;35901;48.694;9.476;2023-04-03T01:42:03;1.90;99.90
50013;DHT22;35901;48.694;9.476;2023-04-03T01:44:34;1.80;99.90
50013;DHT22;35901;48.694;9.476;2023-04-03T01:47:06;1.80;99.90
50013;DHT22;35901;48.694;9.476;2023-04-03T01:49:34;1.80;99.90
50013;DHT22;35901;48.694;9.476;2023-04-03T01:52:01;1.70;99.90
50013;DHT22;35901;48.694;9.476;2023-04-03T01:54:26;1.70;99.90
50013;DHT22;35901;48.694;9.476;2023-04-03T01:56:52;1.60;99.90
50013;DHT22;35901;48.694;9.476;2023-04-03T01:59:19;1.60;99.90
50013;DHT22;35901;48.694;9.476;2023-04-03T02:01:45;1.60;99.90
50013;DHT22;35901;48.694;9.476;2023-04-03T02:04:12;1.60;99.90
50013;DHT22;35901;48.694;9.476;2023-04-03T02:06:39;1.60;99.90
50013;DHT22;35901;48.694;9.476;2023-04-03T02:09:06;1.50;99.90
50013;DHT22;35901;48.694;9.476;2023-04-03T02:11:32;1.60;99.90
50013;DHT22;35901;48.694;9.476;2023-04-03T02:13:58;1.60;99.90
50013;DHT22;35901;48.694;9.476;2023-04-03T02:16:25;1.60;99.90
50013;DHT22;35901;48.694;9.476;2023-04-03T02:18:52;1.70;99.90
50013;DHT22;35901;48.694;9.476;2023-04-03T02:21:18;1.70;99.90
50013;DHT22;35901;48.694;9.476;2023-04-03T02:23:44;1.70;99.90
50013;DHT22;35901;48.694;9.476;2023-04-03T02:26:14;1.70;99.90
50013;DHT22;35901;48.694;9.476;2023-04-03T02:28:40;1.70;99.90
50013;DHT22;35901;48.694;9.476;2023-04-03T02:31:07;1.80;99.90
50013;DHT22;35901;48.694;9.476;2023-04-03T02:33:33;1.80;99.90
50013;DHT22;35901;48.694;9.476;2023-04-03T02:35:59;1.80;99.90
50013;DHT22;35901;48.694;9.476;2023-04-03T02:38:25;1.90;99.90
50013;DHT22;35901;48.694;9.476;2023-04-03T02:40:52;1.90;99.90
50013;DHT22;35901;48.694;9.476;2023-04-03T02:43:18;2.00;99.90
50013;DHT22;35901;48.694;9.476;2023-04-03T02:45:44;2.00;99.90
50013;DHT22;35901;48.694;9.476;2023-04-03T02:48:11;1.90;99.90
50013;DHT22;35901;48.694;9.476;2023-04-03T02:50:37;1.90;99.90
50013;DHT22;35901;48.694;9.476;2023-04-03T02:53:03;1.90;99.90
50013;DHT22;35901;48.694;9.476;2023-04-03T02:55:28;2.00;99.90
50013;DHT22;35901;48.694;9.476;2023-04-03T02:57:55;2.00;99.90
50013;DHT22;35901;48.694;9.476;2023-04-03T03:00:21;2.00;99.90
50013;DHT22;35901;48.694;9.476;2023-04-03T03:02:48;2.10;99.90
50013;DHT22;35901;48.694;9.476;2023-04-03T03:05:15;2.10;99.90
50013;DHT22;35901;48.694;9.476;2023-04-03T03:07:40;2.10;99.90
50013;DHT22;35901;48.694;9.476;2023-04-03T03:10:06;2.10;99.90
50013;DHT22;35901;48.694;9.476;2023-04-03T03:12:32;2.10;99.90
50013;DHT22;35901;48.694;9.476;2023-04-03T03:14:58;2.10;99.90
50013;DHT22;35901;48.694;9.476;2023-04-03T03:17:23;2.10;99.90
50013;DHT22;35901;48.694;9.476;2023-04-03T03:19:49;2.10;99.90
50013;DHT22;35901;48.694;9.476;2023-04-03T03:22:16;2.10;99.90
50013;DHT22;35901;48.694;9.476;2023-04-03T03:24:42;2.10;99.90
50013;DHT22;35901;48.694;9.476;2023-04-03T03:27:08;2.20;99.90
50013;DHT22;35901;48.694;9.476;2023-04-03T03:29:34;2.30;99.90
50013;DHT22;35901;48.694;9.476;2023-04-03T03:32:00;2.20;99.90
50013;DHT22;35901;48.694;9.476;2023-04-03T03:34:26;2.20;99.90
50013;DHT22;35901;48.694;9.476;2023-04-03T03:36:52;2.10;99.90
50013;DHT22;35901;48.694;9.476;2023-04-03T03:39:17;2.10;99.90
50013;DHT22;35901;48.694;9.476;2023-04-03T03:41:44;2.10;99.90
50013;DHT22;35901;48.694;9.476;2023-04-03T03:44:10;2.10;99.90
50013;DHT22;35901;48.694;9.476;2023-04-03T03:46:37;2.10;99.90
50013;DHT22;35901;48.694;9.476;2023-04-03T03:49:02;2.20;99.90
50013;DHT22;35901;48.694;9.476;2023-04-03T03:51:28;2.20;99.90
50013;DHT22;35901;48.694;9.476;2023-04-03T03:53:55;2.20;99.90
50013;DHT22;35901;48.694;9.476;2023-04-03T03:56:21;2.20;99.90
50013;DHT22;35901;48.694;9.476;2023-04-03T03:58:48;2.20;99.90
50013;DHT22;35901;48.694;9.476;2023-04-03T04:01:15;2.20;99.90
50013;DHT22;35901;48.694;9.476;2023-04-03T04:03:45;2.20;99.90
50013;DHT22;35901;48.694;9.476;2023-04-03T04:06:15;2.20;99.90
50013;DHT22;35901;48.694;9.476;2023-04-03T04:08:41;2.20;99.90
50013;DHT22;35901;48.694;9.476;2023-04-03T04:11:09;2.20;99.90
50013;DHT22;35901;48.694;9.476;2023-04-03T04:13:35;2.30;99.90
50013;DHT22;35901;48.694;9.476;2023-04-03T04:16:01;2.30;99.90
50013;DHT22;35901;48.694;9.476;2023-04-03T04:18:28;2.30;99.90
50013;DHT22;35901;48.694;9.476;2023-04-03T04:20:53;2.30;99.90
50013;DHT22;35901;48.694;9.476;2023-04-03T04:23:21;2.30;99.90
50013;DHT22;35901;48.694;9.476;2023-04-03T04:25:48;2.20;99.90
50013;DHT22;35901;48.694;9.476;2023-04-03T04:28:15;2.20;99.90
50013;DHT22;35901;48.694;9.476;2023-04-03T04:30:41;2.20;99.90
50013;DHT22;35901;48.694;9.476;2023-04-03T04:33:07;2.10;99.90
50013;DHT22;35901;48.694;9.476;2023-04-03T04:35:34;2.10;99.90
50013;DHT22;35901;48.694;9.476;2023-04-03T04:38:01;2.10;99.90
50013;DHT22;35901;48.694;9.476;2023-04-03T04:40:27;2.20;99.90
50013;DHT22;35901;48.694;9.476;2023-04-03T04:42:53;2.20;99.90
50013;DHT22;35901;48.694;9.476;2023-04-03T04:45:19;2.10;99.90
50013;DHT22;35901;48.694;9.476;2023-04-03T04:47:46;2.20;99.90
50013;DHT22;35901;48.694;9.476;2023-04-03T04:50:12;2.10;99.90
50013;DHT22;35901;48.694;9.476;2023-04-03T04:52:39;2.10;99.90
50013;DHT22;35901;48.694;9.476;2023-04-03T04:55:06;2.10;99.90
50013;DHT22;35901;48.694;9.476;2023-04-03T04:57:32;2.10;99.90
50013;DHT22;35901;48.694;9.476;2023-04-03T04:59:59;2.20;99.90
50013;DHT22;35901;48.694;9.476;2023-04-03T05:02:25;2.20;99.90
50013;DHT22;35901;48.694;9.476;2023-04-03T05:04:51;2.20;99.90
50013;DHT22;35901;48.694;9.476;2023-04-03T05:07:21;2.30;99.90
50013;DHT22;35901;48.694;9.476;2023-04-03T05:09:47;2.30;99.90
50013;DHT22;35901;48.694;9.476;2023-04-03T05:12:16;2.30;99.90
50013;DHT22;35901;48.694;9.476;2023-04-03T05:14:48;2.30;99.90
50013;DHT22;35901;48.694;9.476;2023-04-03T05:17:14;2.20;99.90
50013;DHT22;35901;48.694;9.476;2023-04-03T05:19:44;2.10;99.90
50013;DHT22;35901;48.694;9.476;2023-04-03T05:22:11;2.00;99.90
50013;DHT22;35901;48.694;9.476;2023-04-03T05:24:36;1.80;99.90
50013;DHT22;35901;48.694;9.476;2023-04-03T05:27:03;1.80;99.90
50013;DHT22;35901;48.694;9.476;2023-04-03T05:29:32;1.70;99.90
50013;DHT22;35901;48.694;9.476;2023-04-03T05:31:59;1.60;99.90
50013;DHT22;35901;48.694;9.476;2023-04-03T05:34:26;1.60;99.90
50013;DHT22;35901;48.694;9.476;2023-04-03T05:36:54;1.60;99.90
50013;DHT22;35901;48.694;9.476;2023-04-03T05:39:20;1.60;99.90
50013;DHT22;35901;48.694;9.476;2023-04-03T05:41:47;1.50;99.90
50013;DHT22;35901;48.694;9.476;2023-04-03T05:44:13;1.50;99.90
50013;DHT22;35901;48.694;9.476;2023-04-03T05:46:41;1.60;99.90
50013;DHT22;35901;48.694;9.476;2023-04-03T05:49:08;1.70;99.90
50013;DHT22;35901;48.694;9.476;2023-04-03T05:51:37;1.80;99.90
50013;DHT22;35901;48.694;9.476;2023-04-03T05:54:28;1.90;99.90
50013;DHT22;35901;48.694;9.476;2023-04-03T05:57:17;1.90;99.90
50013;DHT22;35901;48.694;9.476;2023-04-03T05:59:45;2.10;99.90
50013;DHT22;35901;48.694;9.476;2023-04-03T06:02:12;2.10;99.90
50013;DHT22;35901;48.694;9.476;2023-04-03T06:04:38;2.20;99.90
50013;DHT22;35901;48.694;9.476;2023-04-03T06:07:04;2.20;99.90
50013;DHT22;35901;48.694;9.476;2023-04-03T06:09:30;2.30;99.90
50013;DHT22;35901;48.694;9.476;2023-04-03T06:11:56;2.30;99.90
50013;DHT22;35901;48.694;9.476;2023-04-03T06:14:25;2.40;99.90
50013;DHT22;35901;48.694;9.476;2023-04-03T06:16:52;2.40;99.90
50013;DHT22;35901;48.694;9.476;2023-04-03T06:19:19;2.40;99.90
50013;DHT22;35901;48.694;9.476;2023-04-03T06:21:49;2.50;99.90
50013;DHT22;35901;48.694;9.476;2023-04-03T06:24:16;2.60;99.90
50013;DHT22;35901;48.694;9.476;2023-04-03T06:26:43;2.60;99.90
50013;DHT22;35901;48.694;9.476;2023-04-03T06:29:08;2.60;99.90
50013;DHT22;35901;48.694;9.476;2023-04-03T06:31:34;2.60;99.90
50013;DHT22;35901;48.694;9.476;2023-04-03T06:34:02;2.70;99.90
50013;DHT22;35901;48.694;9.476;2023-04-03T06:36:28;2.90;99.90
50013;DHT22;35901;48.694;9.476;2023-04-03T06:38:54;2.90;99.90
50013;DHT22;35901;48.694;9.476;2023-04-03T06:41:20;3.20;99.90
50013;DHT22;35901;48.694;9.476;2023-04-03T06:43:47;3.30;99.90
50013;DHT22;35901;48.694;9.476;2023-04-03T06:46:17;3.20;99.90
50013;DHT22;35901;48.694;9.476;2023-04-03T06:48:44;3.10;99.90
50013;DHT22;35901;48.694;9.476;2023-04-03T06:51:27;3.10;99.90
50013;DHT22;35901;48.694;9.476;2023-04-03T06:53:56;3.40;99.90
50013;DHT22;35901;48.694;9.476;2023-04-03T06:56:22;3.50;99.90
50013;DHT22;35901;48.694;9.476;2023-04-03T06:58:48;3.60;99.90
50013;DHT22;35901;48.694;9.476;2023-04-03T07:01:15;3.40;99.90
50013;DHT22;35901;48.694;9.476;2023-04-03T07:03:42;3.40;99.90
50013;DHT22;35901;48.694;9.476;2023-04-03T07:06:10;3.80;99.90
50013;DHT22;35901;48.694;9.476;2023-04-03T07:08:37;3.70;99.90
50013;DHT22;35901;48.694;9.476;2023-04-03T07:11:03;3.50;99.90
50013;DHT22;35901;48.694;9.476;2023-04-03T07:13:29;3.80;99.90
50013;DHT22;35901;48.694;9.476;2023-04-03T07:15:54;3.90;99.90
50013;DHT22;35901;48.694;9.476;2023-04-03T07:18:20;4.30;99.90
50013;DHT22;35901;48.694;9.476;2023-04-03T07:20:46;4.10;99.90
50013;DHT22;35901;48.694;9.476;2023-04-03T07:23:12;4.20;99.90
50013;DHT22;35901;48.694;9.476;2023-04-03T07:25:49;4.30;99.90
50013;DHT22;35901;48.694;9.476;2023-04-03T07:28:16;4.70;99.90
50013;DHT22;35901;48.694;9.476;2023-04-03T07:30:46;4.50;99.90
50013;DHT22;35901;48.694;9.476;2023-04-03T07:33:14;4.40;99.90
50013;DHT22;35901;48.694;9.476;2023-04-03T07:35:40;5.20;99.90
50013;DHT22;35901;48.694;9.476;2023-04-03T07:38:06;5.10;99.90
50013;DHT22;35901;48.694;9.476;2023-04-03T07:40:33;4.80;99.90
50013;DHT22;35901;48.694;9.476;2023-04-03T07:42:58;5.30;99.90
50013;DHT22;35901;48.694;9.476;2023-04-03T07:45:25;5.30;99.90
50013;DHT22;35901;48.694;9.476;2023-04-03T07:47:51;5.70;99.90
50013;DHT22;35901;48.694;9.476;2023-04-03T07:50:17;5.90;99.90
50013;DHT22;35901;48.694;9.476;2023-04-03T07:52:43;5.80;99.90
50013;DHT22;35901;48.694;9.476;2023-04-03T07:55:09;5.90;99.90
50013;DHT22;35901;48.694;9.476;2023-04-03T07:57:34;6.10;99.90
50013;DHT22;35901;48.694;9.476;2023-04-03T08:00:05;6.10;99.90
50013;DHT22;35901;48.694;9.476;2023-04-03T08:02:37;6.00;99.90
50013;DHT22;35901;48.694;9.476;2023-04-03T08:05:03;5.70;99.90
50013;DHT22;35901;48.694;9.476;2023-04-03T08:07:29;5.80;99.90
50013;DHT22;35901;48.694;9.476;2023-04-03T08:09:55;5.70;99.90
50013;DHT22;35901;48.694;9.476;2023-04-03T08:12:20;5.80;99.90
50013;DHT22;35901;48.694;9.476;2023-04-03T08:14:46;5.60;99.90
50013;DHT22;35901;48.694;9.476;2023-04-03T08:17:12;5.90;99.90
50013;DHT22;35901;48.694;9.476;2023-04-03T08:19:38;5.90;99.90
50013;DHT22;35901;48.694;9.476;2023-04-03T08:22:05;6.60;99.90
50013;DHT22;35901;48.694;9.476;2023-04-03T08:24:34;7.30;99.90
50013;DHT22;35901;48.694;9.476;2023-04-03T08:27:00;7.20;99.90
50013;DHT22;35901;48.694;9.476;2023-04-03T08:29:26;6.70;99.90
50013;DHT22;35901;48.694;9.476;2023-04-03T08:31:52;6.70;99.90
50013;DHT22;35901;48.694;9.476;2023-04-03T08:34:19;6.70;99.90
50013;DHT22;35901;48.694;9.476;2023-04-03T08:36:45;6.20;99.90
50013;DHT22;35901;48.694;9.476;2023-04-03T08:39:11;6.20;99.90
50013;DHT22;35901;48.694;9.476;2023-04-03T08:44:30;6.20;99.90
50013;DHT22;35901;48.694;9.476;2023-04-03T08:49:50;6.80;99.90
50013;DHT22;35901;48.694;9.476;2023-04-03T08:52:47;6.70;99.90
50013;DHT22;35901;48.694;9.476;2023-04-03T08:55:29;6.80;99.90
50013;DHT22;35901;48.694;9.476;2023-04-03T08:58:10;7.00;99.90
50013;DHT22;35901;48.694;9.476;2023-04-03T09:00:59;6.90;99.90
50013;DHT22;35901;48.694;9.476;2023-04-03T09:03:29;7.20;99.90
50013;DHT22;35901;48.694;9.476;2023-04-03T09:08:28;7.00;99.90
50013;DHT22;35901;48.694;9.476;2023-04-03T09:11:23;6.90;99.90
50013;DHT22;35901;48.694;9.476;2023-04-03T09:14:26;7.20;99.90
50013;DHT22;35901;48.694;9.476;2023-04-03T09:20:14;7.80;99.90
50013;DHT22;35901;48.694;9.476;2023-04-03T09:22:43;7.90;99.90
50013;DHT22;35901;48.694;9.476;2023-04-03T09:25:17;8.70;99.90
50013;DHT22;35901;48.694;9.476;2023-04-03T09:27:44;8.10;99.90
50013;DHT22;35901;48.694;9.476;2023-04-03T09:30:21;7.90;99.90
50013;DHT22;35901;48.694;9.476;2023-04-03T09:32:53;7.60;99.10
50013;DHT22;35901;48.694;9.476;2023-04-03T09:35:33;7.60;99.40
50013;DHT22;35901;48.694;9.476;2023-04-03T09:43:31;7.20;98.20
50013;DHT22;35901;48.694;9.476;2023-04-03T09:46:24;6.70;99.80
50013;DHT22;35901;48.694;9.476;2023-04-03T09:49:00;7.30;99.40
50013;DHT22;35901;48.694;9.476;2023-04-03T09:51:29;7.10;99.90
50013;DHT22;35901;48.694;9.476;2023-04-03T09:53:58;7.10;98.60
50013;DHT22;35901;48.694;9.476;2023-04-03T09:56:27;7.40;97.50
50013;DHT22;35901;48.694;9.476;2023-04-03T10:01:38;7.10;98.60
50013;DHT22;35901;48.694;9.476;2023-04-03T10:04:16;7.30;98.00
50013;DHT22;35901;48.694;9.476;2023-04-03T10:06:47;7.00;96.30
50013;DHT22;35901;48.694;9.476;2023-04-03T10:09:23;6.60;97.20
50013;DHT22;35901;48.694;9.476;2023-04-03T10:12:11;7.20;99.10
50013;DHT22;35901;48.694;9.476;2023-04-03T10:14:39;6.90;98.10
50013;DHT22;35901;48.694;9.476;2023-04-03T10:17:57;6.90;97.30
50013;DHT22;35901;48.694;9.476;2023-04-03T10:20:42;7.00;94.50
50013;DHT22;35901;48.694;9.476;2023-04-03T10:23:32;7.10;95.90
50013;DHT22;35901;48.694;9.476;2023-04-03T10:37:06;6.00;96.80
50013;DHT22;35901;48.694;9.476;2023-04-03T10:40:08;6.10;96.30
50013;DHT22;35901;48.694;9.476;2023-04-03T10:42:44;6.10;98.40
50013;DHT22;35901;48.694;9.476;2023-04-03T10:45:37;6.40;96.10
50013;DHT22;35901;48.694;9.476;2023-04-03T10:48:17;6.50;97.30
50013;DHT22;35901;48.694;9.476;2023-04-03T10:50:58;6.90;95.80
50013;DHT22;35901;48.694;9.476;2023-04-03T10:58:50;6.40;95.30
50013;DHT22;35901;48.694;9.476;2023-04-03T11:01:32;6.50;96.80
50013;DHT22;35901;48.694;9.476;2023-04-03T11:04:04;7.00;95.40
50013;DHT22;35901;48.694;9.476;2023-04-03T11:06:47;6.90;94.90
50013;DHT22;35901;48.694;9.476;2023-04-03T11:09:39;6.90;95.40
50013;DHT22;35901;48.694;9.476;2023-04-03T11:12:29;6.70;93.80
50013;DHT22;35901;48.694;9.476;2023-04-03T11:15:01;6.70;94.20
50013;DHT22;35901;48.694;9.476;2023-04-03T11:17:37;6.60;95.40
50013;DHT22;35901;48.694;9.476;2023-04-03T11:20:14;6.30;94.30
50013;DHT22;35901;48.694;9.476;2023-04-03T11:23:19;6.40;96.00
50013;DHT22;35901;48.694;9.476;2023-04-03T11:25:53;6.30;95.80
50013;DHT22;35901;48.694;9.476;2023-04-03T11:28:19;6.00;95.70
50013;DHT22;35901;48.694;9.476;2023-04-03T11:38:45;5.70;97.00
50013;DHT22;35901;48.694;9.476;2023-04-03T11:41:13;6.00;96.50
50013;DHT22;35901;48.694;9.476;2023-04-03T11:44:34;6.20;95.00
50013;DHT22;35901;48.694;9.476;2023-04-03T11:47:04;6.00;93.20
50013;DHT22;35901;48.694;9.476;2023-04-03T11:49:55;6.10;92.80
50013;DHT22;35901;48.694;9.476;2023-04-03T12:00:48;7.10;93.10
50013;DHT22;35901;48.694;9.476;2023-04-03T12:19:33;6.90;93.70
50013;DHT22;35901;48.694;9.476;2023-04-03T12:24:35;6.90;90.40
50013;DHT22;35901;48.694;9.476;2023-04-03T12:27:38;7.10;91.80
50013;DHT22;35901;48.694;9.476;2023-04-03T12:30:21;7.10;92.10
50013;DHT22;35901;48.694;9.476;2023-04-03T12:44:42;8.00;92.20
50013;DHT22;35901;48.694;9.476;2023-04-03T12:47:29;8.40;90.70
50013;DHT22;35901;48.694;9.476;2023-04-03T12:49:59;8.00;88.60
50013;DHT22;35901;48.694;9.476;2023-04-03T12:52:44;7.40;89.80
50013;DHT22;35901;48.694;9.476;2023-04-03T12:55:18;7.20;90.80
50013;DHT22;35901;48.694;9.476;2023-04-03T12:57:45;7.40;91.70
50013;DHT22;35901;48.694;9.476;2023-04-03T13:02:51;7.30;90.00
50013;DHT22;35901;48.694;9.476;2023-04-03T13:05:19;7.50;91.00
50013;DHT22;35901;48.694;9.476;2023-04-03T13:07:58;7.50;92.00
50013;DHT22;35901;48.694;9.476;2023-04-03T13:10:25;7.30;91.40
50013;DHT22;35901;48.694;9.476;2023-04-03T13:12:58;7.10;92.20
50013;DHT22;35901;48.694;9.476;2023-04-03T13:15:44;7.20;91.40
50013;DHT22;35901;48.694;9.476;2023-04-03T13:18:30;6.90;91.00
50013;DHT22;35901;48.694;9.476;2023-04-03T13:21:02;6.90;91.70
50013;DHT22;35901;48.694;9.476;2023-04-03T13:23:29;6.80;91.20
50013;DHT22;35901;48.694;9.476;2023-04-03T13:25:56;6.90;91.80
50013;DHT22;35901;48.694;9.476;2023-04-03T13:28:27;6.70;90.90
50013;DHT22;35901;48.694;9.476;2023-04-03T13:31:22;6.70;92.80
50013;DHT22;35901;48.694;9.476;2023-04-03T13:34:05;6.80;91.30
50013;DHT22;35901;48.694;9.476;2023-04-03T13:36:35;7.10;91.00
50013;DHT22;35901;48.694;9.476;2023-04-03T13:39:23;7.30;90.40
50013;DHT22;35901;48.694;9.476;2023-04-03T13:41:52;7.50;92.20
50013;DHT22;35901;48.694;9.476;2023-04-03T13:44:28;7.90;94.20
50013;DHT22;35901;48.694;9.476;2023-04-03T13:47:00;8.10;93.20
50013;DHT22;35901;48.694;9.476;2023-04-03T13:49:34;8.50;91.50
50013;DHT22;35901;48.694;9.476;2023-04-03T13:52:03;8.30;89.80
50013;DHT22;35901;48.694;9.476;2023-04-03T13:54:37;8.90;86.20
50013;DHT22;35901;48.694;9.476;2023-04-03T13:57:12;8.30;86.20
50013;DHT22;35901;48.694;9.476;2023-04-03T13:59:38;8.00;82.10
50013;DHT22;35901;48.694;9.476;2023-04-03T14:07:03;7.30;86.40
50013;DHT22;35901;48.694;9.476;2023-04-03T14:09:29;7.70;84.80
50013;DHT22;35901;48.694;9.476;2023-04-03T14:11:59;7.90;90.30
50013;DHT22;35901;48.694;9.476;2023-04-03T14:14:34;7.90;84.10
50013;DHT22;35901;48.694;9.476;2023-04-03T14:17:03;7.60;84.10
50013;DHT22;35901;48.694;9.476;2023-04-03T14:19:37;7.20;84.90
50013;DHT22;35901;48.694;9.476;2023-04-03T14:24:49;8.00;86.70
50013;DHT22;35901;48.694;9.476;2023-04-03T14:29:41;7.60;90.20
50013;DHT22;35901;48.694;9.476;2023-04-03T14:32:09;7.20;88.10
50013;DHT22;35901;48.694;9.476;2023-04-03T14:34:36;7.20;88.40
50013;DHT22;35901;48.694;9.476;2023-04-03T14:37:02;6.90;91.80
50013;DHT22;35901;48.694;9.476;2023-04-03T14:39:31;7.00;89.30
50013;DHT22;35901;48.694;9.476;2023-04-03T14:41:56;6.80;89.40
50013;DHT22;35901;48.694;9.476;2023-04-03T14:44:22;7.00;90.90
50013;DHT22;35901;48.694;9.476;2023-04-03T14:46:48;6.80;88.60
50013;DHT22;35901;48.694;9.476;2023-04-03T14:49:34;6.70;90.20
50013;DHT22;35901;48.694;9.476;2023-04-03T14:52:00;6.70;90.70
50013;DHT22;35901;48.694;9.476;2023-04-03T14:54:26;6.70;90.80
50013;DHT22;35901;48.694;9.476;2023-04-03T14:56:54;6.80;90.50
50013;DHT22;35901;48.694;9.476;2023-04-03T14:59:21;6.60;89.80
50013;DHT22;35901;48.694;9.476;2023-04-03T15:01:47;6.60;89.60
50013;DHT22;35901;48.694;9.476;2023-04-03T15:04:18;6.40;87.40
50013;DHT22;35901;48.694;9.476;2023-04-03T15:06:45;6.30;88.00
50013;DHT22;35901;48.694;9.476;2023-04-03T15:09:24;7.20;89.40
50013;DHT22;35901;48.694;9.476;2023-04-03T15:11:52;8.00;83.00
50013;DHT22;35901;48.694;9.476;2023-04-03T15:14:18;7.90;83.20
50013;DHT22;35901;48.694;9.476;2023-04-03T15:16:44;7.70;84.60
50013;DHT22;35901;48.694;9.476;2023-04-03T15:19:11;8.30;85.50
50013;DHT22;35901;48.694;9.476;2023-04-03T15:21:37;8.10;82.90
50013;DHT22;35901;48.694;9.476;2023-04-03T15:24:03;7.70;82.30
50013;DHT22;35901;48.694;9.476;2023-04-03T15:26:30;7.20;84.90
50013;DHT22;35901;48.694;9.476;2023-04-03T15:28:56;6.70;84.00
50013;DHT22;35901;48.694;9.476;2023-04-03T15:31:21;6.50;83.30
50013;DHT22;35901;48.694;9.476;2023-04-03T15:33:47;6.20;84.80
50013;DHT22;35901;48.694;9.476;2023-04-03T15:36:13;6.10;85.10
50013;DHT22;35901;48.694;9.476;2023-04-03T15:38:38;6.30;83.90
50013;DHT22;35901;48.694;9.476;2023-04-03T15:41:04;6.70;85.80
50013;DHT22;35901;48.694;9.476;2023-04-03T15:43:30;7.70;89.10
50013;DHT22;35901;48.694;9.476;2023-04-03T15:45:57;7.80;88.90
50013;DHT22;35901;48.694;9.476;2023-04-03T15:48:23;7.60;82.90
50013;DHT22;35901;48.694;9.476;2023-04-03T15:50:49;7.70;84.30
50013;DHT22;35901;48.694;9.476;2023-04-03T15:53:14;8.10;84.60
50013;DHT22;35901;48.694;9.476;2023-04-03T15:55:40;7.50;85.20
50013;DHT22;35901;48.694;9.476;2023-04-03T15:58:07;7.20;83.20
50013;DHT22;35901;48.694;9.476;2023-04-03T16:00:33;7.10;85.60
50013;DHT22;35901;48.694;9.476;2023-04-03T16:03:02;7.20;83.40
50013;DHT22;35901;48.694;9.476;2023-04-03T16:05:29;7.10;87.30
50013;DHT22;35901;48.694;9.476;2023-04-03T16:07:57;7.00;88.30
50013;DHT22;35901;48.694;9.476;2023-04-03T16:10:23;7.00;81.70
50013;DHT22;35901;48.694;9.476;2023-04-03T16:12:49;6.30;83.10
50013;DHT22;35901;48.694;9.476;2023-04-03T16:15:15;6.10;85.80
50013;DHT22;35901;48.694;9.476;2023-04-03T16:17:40;5.80;88.10
50013;DHT22;35901;48.694;9.476;2023-04-03T16:20:08;5.50;86.60
50013;DHT22;35901;48.694;9.476;2023-04-03T16:22:35;5.50;86.50
50013;DHT22;35901;48.694;9.476;2023-04-03T16:25:01;5.60;86.80
50013;DHT22;35901;48.694;9.476;2023-04-03T16:27:27;5.80;86.60
50013;DHT22;35901;48.694;9.476;2023-04-03T16:29:55;6.40;87.20
50013;DHT22;35901;48.694;9.476;2023-04-03T16:32:22;6.70;86.30
50013;DHT22;35901;48.694;9.476;2023-04-03T16:34:48;6.80;90.90
50013;DHT22;35901;48.694;9.476;2023-04-03T16:37:14;6.80;86.60
50013;DHT22;35901;48.694;9.476;2023-04-03T16:39:40;6.50;84.60
50013;DHT22;35901;48.694;9.476;2023-04-03T16:42:06;6.10;85.30
50013;DHT22;35901;48.694;9.476;2023-04-03T16:44:32;5.90;87.50
50013;DHT22;35901;48.694;9.476;2023-04-03T16:46:57;5.80;87.70
50013;DHT22;35901;48.694;9.476;2023-04-03T16:49:24;5.70;83.00
50013;DHT22;35901;48.694;9.476;2023-04-03T16:51:50;5.40;83.60
50013;DHT22;35901;48.694;9.476;2023-04-03T16:54:16;5.50;81.70
50013;DHT22;35901;48.694;9.476;2023-04-03T16:56:41;5.30;82.50
50013;DHT22;35901;48.694;9.476;2023-04-03T16:59:07;5.30;82.60
50013;DHT22;35901;48.694;9.476;2023-04-03T17:01:33;5.30;83.70
50013;DHT22;35901;48.694;9.476;2023-04-03T17:03:58;5.30;82.60
50013;DHT22;35901;48.694;9.476;2023-04-03T17:06:24;5.20;83.40
50013;DHT22;35901;48.694;9.476;2023-04-03T17:08:51;5.20;82.80
50013;DHT22;35901;48.694;9.476;2023-04-03T17:11:30;5.10;82.50
50013;DHT22;35901;48.694;9.476;2023-04-03T17:13:56;5.00;84.00
50013;DHT22;35901;48.694;9.476;2023-04-03T17:16:22;5.00;83.90
50013;DHT22;35901;48.694;9.476;2023-04-03T17:18:48;5.00;85.40
50013;DHT22;35901;48.694;9.476;2023-04-03T17:21:15;4.90;86.20
50013;DHT22;35901;48.694;9.476;2023-04-03T17:23:42;4.90;85.70
50013;DHT22;35901;48.694;9.476;2023-04-03T17:26:09;4.80;84.10
50013;DHT22;35901;48.694;9.476;2023-04-03T17:28:35;4.80;84.50
50013;DHT22;35901;48.694;9.476;2023-04-03T17:31:02;4.80;85.50
50013;DHT22;35901;48.694;9.476;2023-04-03T17:33:28;4.70;86.10
50013;DHT22;35901;48.694;9.476;2023-04-03T17:35:58;4.60;86.00
50013;DHT22;35901;48.694;9.476;2023-04-03T17:38:27;4.60;86.40
50013;DHT22;35901;48.694;9.476;2023-04-03T17:40:56;4.50;87.70
50013;DHT22;35901;48.694;9.476;2023-04-03T17:43:24;4.50;87.40
50013;DHT22;35901;48.694;9.476;2023-04-03T17:45:50;4.40;87.50
50013;DHT22;35901;48.694;9.476;2023-04-03T17:48:18;4.40;88.10